createdAt,value
2024-01-15T00:00:37.728Z,2.24
2024-01-15T00:03:13.110Z,2.16
2024-01-15T00:05:40.243Z,1.94
2024-01-15T00:08:08.712Z,2.22
2024-01-15T00:10:35.778Z,2.31
2024-01-15T00:13:02.876Z,2.30
2024-01-15T00:15:30.083Z,2.25
2024-01-15T00:17:57.245Z,2.32
2024-01-15T00:20:24.334Z,2.25
2024-01-15T00:22:51.312Z,2.08
2024-01-15T00:25:19.141Z,2.32
2024-01-15T00:27:46.162Z,2.06
2024-01-15T00:30:13.791Z,1.90
2024-01-15T00:32:41.157Z,1.81
2024-01-15T00:35:08.602Z,1.85
2024-01-15T00:37:35.608Z,1.90
2024-01-15T00:40:03.049Z,1.74
2024-01-15T00:42:30.065Z,1.97
2024-01-15T00:44:57.104Z,1.96
2024-01-15T00:47:24.189Z,2.14
2024-01-15T00:49:51.285Z,2.21
2024-01-15T00:52:18.313Z,2.46
2024-01-15T00:54:45.611Z,2.38
2024-01-15T00:57:12.779Z,2.16
2024-01-15T00:59:40.780Z,1.93
2024-01-15T01:02:07.893Z,1.95
2024-01-15T01:04:34.976Z,1.98
2024-01-15T01:07:02.049Z,1.99
2024-01-15T01:09:31.510Z,1.90
2024-01-15T01:11:58.643Z,2.20
2024-01-15T01:14:25.623Z,1.98
2024-01-15T01:16:52.814Z,2.06
2024-01-15T01:19:20.130Z,2.08
2024-01-15T01:21:47.292Z,2.00
2024-01-15T01:24:14.584Z,1.98
2024-01-15T01:26:41.935Z,1.95
2024-01-15T01:29:08.950Z,2.06
2024-01-15T01:31:36.182Z,2.11
2024-01-15T01:34:03.340Z,2.31
2024-01-15T01:36:30.438Z,2.31
2024-01-15T01:38:57.685Z,2.03
2024-01-15T01:41:25.498Z,1.84
2024-01-15T01:43:52.533Z,1.57
2024-01-15T01:46:19.882Z,1.42
2024-01-15T01:48:46.995Z,1.37
2024-01-15T01:51:14.871Z,1.33
2024-01-15T01:53:42.527Z,1.32
2024-01-15T01:56:10.541Z,1.31
2024-01-15T01:58:37.876Z,1.19
2024-01-15T02:01:58.166Z,1.23
2024-01-15T02:04:26.110Z,1.51
2024-01-15T02:06:53.457Z,1.52
2024-01-15T02:09:20.708Z,1.47
2024-01-15T02:11:48.780Z,1.40
2024-01-15T02:14:15.946Z,1.25
2024-01-15T02:16:43.096Z,1.13
2024-01-15T02:19:17.172Z,1.15
2024-01-15T02:21:44.670Z,1.16
2024-01-15T02:24:12.570Z,1.18
2024-01-15T02:26:39.913Z,1.16
2024-01-15T02:29:09.500Z,1.16
2024-01-15T02:31:38.219Z,1.12
2024-01-15T02:34:05.564Z,1.15
2024-01-15T02:36:32.778Z,1.06
2024-01-15T02:38:59.875Z,0.99
2024-01-15T02:41:27.766Z,0.94
2024-01-15T02:43:54.801Z,1.11
2024-01-15T02:46:21.760Z,1.12
2024-01-15T02:48:49.026Z,1.16
2024-01-15T02:51:16.447Z,1.09
2024-01-15T02:53:43.920Z,1.14
2024-01-15T02:56:11.215Z,1.28
2024-01-15T02:58:38.765Z,1.41
2024-01-15T03:01:06.489Z,1.82
2024-01-15T03:03:34.904Z,2.11
2024-01-15T03:06:04.185Z,2.03
2024-01-15T03:08:31.399Z,1.88
2024-01-15T03:10:59.734Z,2.11
2024-01-15T03:13:26.804Z,2.25
2024-01-15T03:15:53.841Z,2.05
2024-01-15T03:18:20.928Z,1.96
2024-01-15T03:20:48.177Z,1.78
2024-01-15T03:23:15.129Z,1.80
2024-01-15T03:25:42.539Z,1.72
2024-01-15T03:28:09.578Z,1.64
2024-01-15T03:30:36.966Z,1.52
2024-01-15T03:33:04.038Z,1.44
2024-01-15T03:35:32.220Z,1.32
2024-01-15T03:37:59.335Z,1.17
2024-01-15T03:40:26.387Z,1.08
2024-01-15T03:42:55.636Z,0.98
2024-01-15T03:45:22.751Z,0.91
2024-01-15T03:47:49.933Z,0.85
2024-01-15T03:50:17.183Z,0.89
2024-01-15T03:52:44.149Z,0.77
2024-01-15T03:55:11.222Z,0.69
2024-01-15T03:57:38.498Z,0.67
2024-01-15T04:00:06.463Z,0.61
2024-01-15T04:02:33.447Z,0.70
2024-01-15T04:05:00.497Z,0.72
2024-01-15T04:07:27.640Z,1.13
2024-01-15T04:09:54.647Z,1.47
2024-01-15T04:12:21.716Z,1.44
2024-01-15T04:14:48.720Z,1.39
2024-01-15T04:17:15.667Z,1.42
2024-01-15T04:19:45.496Z,1.45
2024-01-15T04:22:13.182Z,1.43
2024-01-15T04:24:40.354Z,1.39
2024-01-15T04:27:08.629Z,1.31
2024-01-15T04:29:38.404Z,1.14
2024-01-15T04:32:07.415Z,1.04
2024-01-15T04:34:34.605Z,0.86
2024-01-15T04:37:01.709Z,0.81
2024-01-15T04:39:28.981Z,0.71
2024-01-15T04:41:56.071Z,0.63
2024-01-15T04:44:23.922Z,0.53
2024-01-15T04:46:51.002Z,0.47
2024-01-15T04:49:18.149Z,0.41
2024-01-15T04:51:45.277Z,0.37
2024-01-15T04:54:12.858Z,0.43
2024-01-15T04:56:39.925Z,0.54
2024-01-15T04:59:06.867Z,0.57
2024-01-15T05:01:34.269Z,0.65
2024-01-15T05:04:01.697Z,0.69
2024-01-15T05:06:29.432Z,0.72
2024-01-15T05:08:56.415Z,0.67
2024-01-15T05:11:23.549Z,0.61
2024-01-15T05:13:50.544Z,0.58
2024-01-15T05:16:17.566Z,0.68
2024-01-15T05:18:44.898Z,0.69
2024-01-15T05:21:12.628Z,0.78
2024-01-15T05:23:39.622Z,0.79
2024-01-15T05:26:06.722Z,0.82
2024-01-15T05:28:33.662Z,0.83
2024-01-15T05:31:01.315Z,0.89
2024-01-15T05:33:28.550Z,0.92
2024-01-15T05:35:56.000Z,0.91
2024-01-15T05:38:23.161Z,0.89
2024-01-15T05:40:50.219Z,0.94
2024-01-15T05:43:17.280Z,0.89
2024-01-15T05:45:45.315Z,0.93
2024-01-15T05:48:13.785Z,0.95
2024-01-15T05:50:41.113Z,0.93
2024-01-15T05:53:08.043Z,0.97
2024-01-15T05:55:36.399Z,0.94
2024-01-15T05:58:03.508Z,0.94
2024-01-15T06:00:30.615Z,1.03
2024-01-15T06:02:57.682Z,0.99
2024-01-15T06:05:24.665Z,0.98
2024-01-15T06:07:51.632Z,1.02
2024-01-15T06:10:18.713Z,1.01
2024-01-15T06:12:45.800Z,1.00
2024-01-15T06:15:13.730Z,0.92
2024-01-15T06:17:40.937Z,1.04
2024-01-15T06:20:08.677Z,1.02
2024-01-15T06:22:36.991Z,1.06
2024-01-15T06:25:04.463Z,1.09
2024-01-15T06:27:31.473Z,1.41
2024-01-15T06:29:58.565Z,1.50
2024-01-15T06:32:25.927Z,1.18
2024-01-15T06:34:52.950Z,1.00
2024-01-15T06:37:21.704Z,0.92
2024-01-15T06:39:51.606Z,0.89
2024-01-15T06:42:20.115Z,0.85
2024-01-15T06:44:47.058Z,0.79
2024-01-15T06:47:14.094Z,0.71
2024-01-15T06:49:41.196Z,0.63
2024-01-15T06:52:08.349Z,0.55
2024-01-15T06:54:35.490Z,0.58
2024-01-15T06:57:02.705Z,0.48
2024-01-15T06:59:30.167Z,0.45
2024-01-15T07:01:57.542Z,0.47
2024-01-15T07:04:24.571Z,0.44
2024-01-15T07:06:51.628Z,0.50
2024-01-15T07:09:20.090Z,0.57
2024-01-15T07:11:50.362Z,0.63
2024-01-15T07:14:18.144Z,0.78
2024-01-15T07:16:48.545Z,0.89
2024-01-15T07:19:16.728Z,1.00
2024-01-15T07:21:44.711Z,0.92
2024-01-15T07:24:12.317Z,0.85
2024-01-15T07:26:39.429Z,0.77
2024-01-15T07:29:06.410Z,0.69
2024-01-15T07:31:34.147Z,0.60
2024-01-15T07:34:01.605Z,0.44
2024-01-15T07:36:28.871Z,0.41
2024-01-15T07:38:55.940Z,0.29
2024-01-15T07:41:23.106Z,0.35
2024-01-15T07:43:50.213Z,0.38
2024-01-15T07:46:17.387Z,0.67
2024-01-15T07:48:44.947Z,1.13
2024-01-15T07:51:12.267Z,1.16
2024-01-15T07:53:39.603Z,0.97
2024-01-15T07:56:06.745Z,0.86
2024-01-15T07:58:33.900Z,0.74
2024-01-15T08:01:01.080Z,0.71
2024-01-15T08:03:28.558Z,0.67
2024-01-15T08:05:56.918Z,0.73
2024-01-15T08:08:24.451Z,0.76
2024-01-15T08:10:51.428Z,0.74
2024-01-15T08:13:18.507Z,0.71
2024-01-15T08:15:45.751Z,0.76
2024-01-15T08:18:12.993Z,0.67
2024-01-15T08:20:40.435Z,0.70
2024-01-15T08:23:07.730Z,0.63
2024-01-15T08:25:34.668Z,0.69
2024-01-15T08:28:01.813Z,0.73
2024-01-15T08:30:29.570Z,0.71
2024-01-15T08:33:02.343Z,0.63
2024-01-15T08:35:36.576Z,0.66
2024-01-15T08:38:04.121Z,0.61
2024-01-15T08:40:32.074Z,0.52
2024-01-15T08:42:59.375Z,0.60
2024-01-15T08:45:27.114Z,0.66
2024-01-15T08:47:54.848Z,0.69
2024-01-15T08:50:21.932Z,0.71
2024-01-15T08:52:49.085Z,0.79
2024-01-15T08:55:16.035Z,0.77
2024-01-15T08:57:43.137Z,0.85
2024-01-15T09:00:10.976Z,0.97
2024-01-15T09:02:38.512Z,0.98
2024-01-15T09:05:06.095Z,1.04
2024-01-15T09:07:33.869Z,1.09
2024-01-15T09:10:01.089Z,1.11
2024-01-15T09:12:29.090Z,1.06
2024-01-15T09:14:56.961Z,1.17
2024-01-15T09:17:26.943Z,1.09
2024-01-15T09:19:54.238Z,1.14
2024-01-15T09:22:21.350Z,1.07
2024-01-15T09:24:48.991Z,0.95
2024-01-15T09:27:16.117Z,1.08
2024-01-15T09:29:44.214Z,1.30
2024-01-15T09:32:11.212Z,1.50
2024-01-15T09:34:38.441Z,1.80
2024-01-15T09:37:06.013Z,2.12
2024-01-15T09:39:33.081Z,2.22
2024-01-15T09:42:00.805Z,2.11
2024-01-15T09:44:28.511Z,2.13
2024-01-15T09:46:57.642Z,2.14
2024-01-15T09:49:26.392Z,2.04
2024-01-15T09:52:03.340Z,1.98
2024-01-15T09:54:38.118Z,1.94
2024-01-15T09:57:05.387Z,1.94
2024-01-15T09:59:32.895Z,1.92
2024-01-15T10:02:00.341Z,1.97
2024-01-15T10:04:27.417Z,1.99
2024-01-15T10:06:55.694Z,1.97
2024-01-15T10:09:22.835Z,1.98
2024-01-15T10:11:49.977Z,2.04
2024-01-15T10:14:17.815Z,2.24
2024-01-15T10:16:45.197Z,2.43
2024-01-15T10:19:12.482Z,2.55
2024-01-15T10:21:39.792Z,2.51
2024-01-15T10:24:07.401Z,2.53
2024-01-15T10:26:34.906Z,2.46
2024-01-15T10:29:01.998Z,2.39
2024-01-15T10:31:30.852Z,2.29
2024-01-15T10:34:13.499Z,2.25
2024-01-15T10:36:42.173Z,2.18
2024-01-15T10:39:09.419Z,2.17
2024-01-15T10:41:36.578Z,2.18
2024-01-15T10:44:03.755Z,2.14
2024-01-15T10:46:31.342Z,2.15
2024-01-15T10:48:58.450Z,2.16
2024-01-15T10:51:27.383Z,2.14
2024-01-15T10:53:55.035Z,2.15
2024-01-15T10:56:24.337Z,2.09
2024-01-15T10:58:51.848Z,1.99
2024-01-15T11:01:19.065Z,1.84
2024-01-15T11:03:46.272Z,1.71
2024-01-15T11:06:23.395Z,1.53
2024-01-15T11:08:53.679Z,1.55
2024-01-15T11:11:23.378Z,1.39
2024-01-15T11:13:52.955Z,1.33
2024-01-15T11:16:20.082Z,1.17
2024-01-15T11:18:59.471Z,1.20
2024-01-15T11:21:28.611Z,1.25
2024-01-15T11:23:58.628Z,1.24
2024-01-15T11:26:45.534Z,1.10
2024-01-15T11:29:32.144Z,1.06
2024-01-15T11:32:01.803Z,1.30
2024-01-15T11:34:51.925Z,1.40
2024-01-15T11:37:20.146Z,1.51
2024-01-15T11:39:50.815Z,1.53
2024-01-15T11:42:17.988Z,1.70
2024-01-15T11:44:45.983Z,2.27
2024-01-15T11:47:16.428Z,2.86
2024-01-15T11:50:09.898Z,3.16
2024-01-15T11:52:38.213Z,3.23
2024-01-15T11:55:23.314Z,3.29
2024-01-15T11:57:55.692Z,3.27
2024-01-15T12:00:23.837Z,3.32
2024-01-15T12:02:52.357Z,3.33
2024-01-15T12:05:21.556Z,3.40
2024-01-15T12:07:49.991Z,3.40
2024-01-15T12:10:20.709Z,3.29
2024-01-15T12:13:07.925Z,3.26
2024-01-15T12:15:35.442Z,3.29
2024-01-15T12:18:04.081Z,3.43
2024-01-15T12:20:32.237Z,3.35
2024-01-15T12:23:02.479Z,2.92
2024-01-15T12:25:35.293Z,2.48
2024-01-15T12:28:02.817Z,2.34
2024-01-15T12:30:32.952Z,2.24
2024-01-15T12:33:04.394Z,2.53
2024-01-15T12:35:31.630Z,2.80
2024-01-15T12:37:58.676Z,2.87
2024-01-15T12:40:25.821Z,3.01
2024-01-15T12:42:52.992Z,3.10
2024-01-15T12:45:20.743Z,3.19
2024-01-15T12:47:48.072Z,3.20
2024-01-15T12:50:19.723Z,3.16
2024-01-15T12:52:48.310Z,3.11
2024-01-15T12:55:16.062Z,3.11
2024-01-15T12:57:43.639Z,2.87
2024-01-15T13:00:15.031Z,2.65
2024-01-15T13:02:45.662Z,2.54
2024-01-15T13:05:14.411Z,2.52
2024-01-15T13:07:42.741Z,2.58
2024-01-15T13:10:13.500Z,2.51
2024-01-15T13:12:42.757Z,2.30
2024-01-15T13:15:14.891Z,2.28
2024-01-15T13:17:43.547Z,2.67
2024-01-15T13:20:12.763Z,2.89
2024-01-15T13:22:41.680Z,2.88
2024-01-15T13:25:10.146Z,2.94
2024-01-15T13:27:39.166Z,3.00
2024-01-15T13:30:08.721Z,3.01
2024-01-15T13:32:36.930Z,2.99
2024-01-15T13:35:08.284Z,3.03
2024-01-15T13:37:36.036Z,3.22
2024-01-15T13:40:04.938Z,3.32
2024-01-15T13:42:32.121Z,3.23
2024-01-15T13:44:59.688Z,3.12
2024-01-15T13:47:27.544Z,3.17
2024-01-15T13:49:54.995Z,3.43
2024-01-15T13:52:22.093Z,3.59
2024-01-15T13:54:50.727Z,3.64
2024-01-15T13:57:21.066Z,3.57
2024-01-15T13:59:50.688Z,3.71
2024-01-15T14:02:20.900Z,3.90
2024-01-15T14:04:50.360Z,3.90
2024-01-15T14:07:18.095Z,3.32
2024-01-15T14:09:45.391Z,3.21
2024-01-15T14:12:13.310Z,3.06
2024-01-15T14:14:41.789Z,2.86
2024-01-15T14:17:09.033Z,2.89
2024-01-15T14:19:36.867Z,2.86
2024-01-15T14:22:04.785Z,2.93
2024-01-15T14:24:31.883Z,3.07
2024-01-15T14:26:59.830Z,2.91
2024-01-15T14:29:27.835Z,2.93
2024-01-15T14:31:55.003Z,3.14
2024-01-15T14:34:25.279Z,3.17
2024-01-15T14:36:55.450Z,3.10
2024-01-15T14:39:27.127Z,2.98
2024-01-15T14:41:55.478Z,3.02
2024-01-15T14:44:22.738Z,3.03
2024-01-15T14:46:49.791Z,2.96
2024-01-15T14:49:18.627Z,3.05
2024-01-15T14:51:46.070Z,3.18
2024-01-15T14:54:13.123Z,3.24
2024-01-15T14:56:40.573Z,3.19
2024-01-15T14:59:07.989Z,3.08
2024-01-15T15:01:35.000Z,3.19
2024-01-15T15:04:02.278Z,3.19
2024-01-15T15:06:30.818Z,3.22
2024-01-15T15:09:00.907Z,3.29
2024-01-15T15:11:28.064Z,3.17
2024-01-15T15:13:55.100Z,3.28
2024-01-15T15:16:22.121Z,3.08
2024-01-15T15:18:49.288Z,2.92
2024-01-15T15:21:16.690Z,2.73
2024-01-15T15:23:43.826Z,2.68
2024-01-15T15:26:10.957Z,2.61
2024-01-15T15:28:38.478Z,2.57
2024-01-15T15:31:09.801Z,2.60
2024-01-15T15:33:37.489Z,2.62
2024-01-15T15:36:06.573Z,2.29
2024-01-15T15:38:34.097Z,2.05
2024-01-15T15:41:01.488Z,1.93
2024-01-15T15:43:29.050Z,1.82
2024-01-15T15:45:56.745Z,1.70
2024-01-15T15:48:24.199Z,1.69
2024-01-15T15:50:52.911Z,1.65
2024-01-15T15:53:23.592Z,1.56
2024-01-15T15:55:50.687Z,1.60
2024-01-15T15:58:17.761Z,1.50
2024-01-15T16:00:45.126Z,1.49
2024-01-15T16:03:12.487Z,1.60
2024-01-15T16:05:45.849Z,1.71
2024-01-15T16:08:19.588Z,1.78
2024-01-15T16:10:47.612Z,1.84
2024-01-15T16:13:15.337Z,1.84
2024-01-15T16:15:42.683Z,1.77
2024-01-15T16:23:19.129Z,1.80
2024-01-15T16:23:33.635Z,1.80
2024-01-15T16:24:08.673Z,1.75
2024-01-15T16:26:31.776Z,1.79
2024-01-15T16:29:00.889Z,1.72
2024-01-15T16:31:29.326Z,1.74
2024-01-15T16:34:01.756Z,1.85
2024-01-15T16:36:32.953Z,1.68
2024-01-15T16:39:00.382Z,1.69
2024-01-15T16:41:27.500Z,1.65
2024-01-15T16:43:54.595Z,1.58
2024-01-15T16:46:21.811Z,1.74
2024-01-15T16:48:48.975Z,1.77
2024-01-15T16:51:16.244Z,1.92
2024-01-15T16:53:43.312Z,1.76
2024-01-15T16:56:10.865Z,1.71
2024-01-15T16:58:37.821Z,1.61
2024-01-15T17:01:05.433Z,1.77
2024-01-15T17:03:32.604Z,1.57
2024-01-15T17:05:59.700Z,1.56
2024-01-15T17:08:26.861Z,1.72
2024-01-15T17:10:53.963Z,1.66
2024-01-15T17:13:21.037Z,1.71
2024-01-15T17:15:48.070Z,1.95
2024-01-15T17:18:15.198Z,2.14
2024-01-15T17:20:45.455Z,2.25
2024-01-15T17:23:12.713Z,2.11
2024-01-15T17:25:39.845Z,2.00
2024-01-15T17:28:07.039Z,2.13
2024-01-15T17:30:34.358Z,1.92
2024-01-15T17:33:01.790Z,2.01
2024-01-15T17:35:29.668Z,2.08
2024-01-15T17:37:56.754Z,1.96
2024-01-15T17:40:23.847Z,1.86
2024-01-15T17:42:53.485Z,1.85
2024-01-15T17:45:20.710Z,1.71
2024-01-15T17:47:50.675Z,1.65
2024-01-15T17:50:20.158Z,1.38
2024-01-15T17:52:47.495Z,1.41
2024-01-15T17:55:14.683Z,1.46
2024-01-15T17:57:42.118Z,1.57
2024-01-15T18:00:10.487Z,1.61
2024-01-15T18:02:37.790Z,1.80
2024-01-15T18:05:05.582Z,1.81
2024-01-15T18:07:32.727Z,1.97
2024-01-15T18:10:00.296Z,1.88
2024-01-15T18:12:27.513Z,1.79
2024-01-15T18:14:55.191Z,1.87
2024-01-15T18:17:22.551Z,1.99
2024-01-15T18:19:49.630Z,2.29
2024-01-15T18:22:16.772Z,2.32
2024-01-15T18:24:43.807Z,2.44
2024-01-15T18:27:10.848Z,2.55
2024-01-15T18:29:38.265Z,2.46
2024-01-15T18:32:06.091Z,2.31
2024-01-15T18:34:35.788Z,2.29
2024-01-15T18:37:03.019Z,2.30
2024-01-15T18:39:30.166Z,2.24
2024-01-15T18:41:57.546Z,2.11
2024-01-15T18:44:24.702Z,2.14
2024-01-15T18:46:52.026Z,2.03
2024-01-15T18:49:20.866Z,2.01
2024-01-15T18:51:54.230Z,1.91
2024-01-15T18:54:22.116Z,1.75
2024-01-15T18:56:49.345Z,1.56
2024-01-15T18:59:16.716Z,1.44
2024-01-15T19:01:45.162Z,1.40
2024-01-15T19:04:13.379Z,1.31
2024-01-15T19:06:41.907Z,1.10
2024-01-15T19:09:12.162Z,1.03
2024-01-15T19:11:43.312Z,1.08
2024-01-15T19:14:11.409Z,0.95
2024-01-15T19:16:39.382Z,0.83
2024-01-15T19:19:07.385Z,0.72
2024-01-15T19:21:35.346Z,0.66
2024-01-15T19:24:06.316Z,0.71
2024-01-15T19:26:34.506Z,0.55
2024-01-15T19:29:02.978Z,0.67
2024-01-15T19:31:33.794Z,0.66
2024-01-15T19:34:02.025Z,0.63
2024-01-15T19:36:29.582Z,0.52
2024-01-15T19:38:56.661Z,0.53
2024-01-15T19:41:23.811Z,0.42
2024-01-15T19:43:50.866Z,0.32
2024-01-15T19:46:18.094Z,0.27
2024-01-15T19:48:45.231Z,0.34
2024-01-15T19:51:15.599Z,0.41
2024-01-15T19:56:10.781Z,0.72
2024-01-15T19:58:38.649Z,1.61
2024-01-15T20:01:06.475Z,1.79
2024-01-15T20:03:34.090Z,1.78
2024-01-15T20:06:01.589Z,1.75
2024-01-15T20:08:29.313Z,1.72
2024-01-15T20:10:59.971Z,1.61
2024-01-15T20:13:27.260Z,1.49
2024-01-15T20:15:54.327Z,1.36
2024-01-15T20:18:21.501Z,1.29
2024-01-15T20:20:49.332Z,1.30
2024-01-15T20:23:16.457Z,1.11
2024-01-15T20:25:43.598Z,0.95
2024-01-15T20:28:11.883Z,0.74
2024-01-15T20:30:39.180Z,0.59
2024-01-15T20:33:07.563Z,0.56
2024-01-15T20:35:35.006Z,0.41
2024-01-15T20:38:02.656Z,0.38
2024-01-15T20:40:32.712Z,0.30
2024-01-15T20:43:01.070Z,0.13
2024-01-15T20:45:30.368Z,0.16
2024-01-15T20:47:59.815Z,0.10
2024-01-15T20:50:27.565Z,0.02
2024-01-15T20:52:54.736Z,-0.03
2024-01-15T20:55:21.836Z,0.03
2024-01-15T20:57:48.850Z,0.05
2024-01-15T21:00:16.497Z,-0.07
2024-01-15T21:02:43.720Z,-0.10
2024-01-15T21:05:11.012Z,-0.14
2024-01-15T21:07:38.072Z,-0.08
2024-01-15T21:10:05.402Z,0.06
2024-01-15T21:12:32.490Z,0.13
2024-01-15T21:14:59.498Z,0.10
2024-01-15T21:17:26.983Z,0.19
2024-01-15T21:19:57.175Z,0.24
2024-01-15T21:22:24.440Z,0.39
2024-01-15T21:24:51.592Z,0.44
2024-01-15T21:27:18.728Z,0.44
2024-01-15T21:29:46.069Z,0.47
2024-01-15T21:32:13.192Z,0.44
2024-01-15T21:34:40.730Z,0.37
2024-01-15T21:37:07.936Z,0.31
2024-01-15T21:39:35.051Z,0.34
2024-01-15T21:42:02.081Z,0.42
2024-01-15T21:44:29.417Z,0.43
2024-01-15T21:46:56.663Z,0.54
2024-01-15T21:49:23.801Z,0.57
2024-01-15T21:51:51.315Z,0.63
2024-01-15T21:54:18.412Z,0.60
2024-01-15T21:56:45.676Z,0.52
2024-01-15T21:59:12.806Z,0.41
2024-01-15T22:01:40.601Z,0.27
2024-01-15T22:04:08.841Z,0.16
2024-01-15T22:06:38.859Z,0.15
2024-01-15T22:09:06.039Z,0.12
2024-01-15T22:11:33.104Z,0.20
2024-01-15T22:14:00.194Z,0.37
2024-01-15T22:16:27.773Z,0.45
2024-01-15T22:18:54.946Z,0.39
2024-01-15T22:21:22.054Z,0.48
2024-01-15T22:23:49.233Z,0.54
2024-01-15T22:26:16.466Z,0.95
2024-01-15T22:28:43.422Z,0.89
2024-01-15T22:31:11.262Z,0.74
2024-01-15T22:33:38.565Z,0.63
2024-01-15T22:36:06.003Z,0.59
2024-01-15T22:38:33.072Z,0.61
2024-01-15T22:41:00.344Z,0.69
2024-01-15T22:43:27.922Z,0.79
2024-01-15T22:45:55.935Z,0.77
2024-01-15T22:48:23.243Z,0.61
2024-01-15T22:50:50.454Z,0.60
2024-01-15T22:53:17.617Z,0.67
2024-01-15T22:55:44.680Z,0.90
2024-01-15T22:58:11.955Z,1.05
2024-01-15T23:00:39.105Z,1.36
2024-01-15T23:03:06.347Z,1.23
2024-01-15T23:05:33.800Z,1.04
2024-01-15T23:08:01.453Z,0.93
2024-01-15T23:10:28.569Z,0.85
2024-01-15T23:12:55.609Z,0.78
2024-01-15T23:15:24.472Z,0.69
2024-01-15T23:17:52.217Z,0.63
2024-01-15T23:20:20.124Z,0.67
2024-01-15T23:22:47.237Z,0.75
2024-01-15T23:25:14.268Z,0.77
2024-01-15T23:27:42.575Z,0.80
2024-01-15T23:30:10.747Z,1.04
2024-01-15T23:32:38.098Z,1.04
2024-01-15T23:35:05.640Z,1.40
2024-01-15T23:37:32.930Z,1.88
2024-01-15T23:39:59.968Z,1.68
2024-01-15T23:42:27.859Z,1.57
2024-01-15T23:44:54.934Z,1.50
2024-01-15T23:47:21.952Z,1.35
2024-01-15T23:49:49.001Z,1.18
2024-01-15T23:52:16.077Z,1.06
2024-01-15T23:54:43.553Z,1.12
2024-01-15T23:57:10.711Z,1.14
2024-01-15T23:59:39.325Z,1.22
